createdAt,value
2019-02-12T00:02:56.857Z,100.00
2019-02-12T00:17:59.709Z,100.00
2019-02-12T00:33:03.350Z,99.47
2019-02-12T00:48:05.910Z,94.92
2019-02-12T01:03:09.234Z,94.01
2019-02-12T01:18:13.072Z,93.55
2019-02-12T01:33:15.630Z,92.73
2019-02-12T01:48:19.465Z,93.08
2019-02-12T02:03:22.300Z,93.83
2019-02-12T02:18:25.188Z,93.77
2019-02-12T02:33:27.821Z,92.33
2019-02-12T02:48:30.375Z,88.36
2019-02-12T03:03:32.935Z,84.72
2019-02-12T03:18:35.494Z,83.50
2019-02-12T03:33:39.649Z,82.29
2019-02-12T03:48:43.234Z,83.16
2019-02-12T04:03:48.773Z,85.39
2019-02-12T04:18:51.794Z,81.37
2019-02-12T04:33:55.319Z,79.92
2019-02-12T04:48:58.689Z,80.82
2019-02-12T05:04:01.232Z,79.95
2019-02-12T05:19:04.756Z,82.67
2019-02-12T05:34:07.332Z,81.06
2019-02-12T05:49:10.462Z,80.90
2019-02-12T06:04:13.028Z,77.53
2019-02-12T06:19:16.484Z,70.04
2019-02-12T06:34:49.298Z,70.97
2019-02-12T06:50:23.426Z,72.72
2019-02-12T07:05:58.856Z,74.06
2019-02-12T07:21:47.936Z,66.26
2019-02-12T07:37:32.344Z,71.46
2019-02-12T07:53:12.369Z,70.58
2019-02-12T08:08:58.714Z,72.52
2019-02-12T08:41:04.374Z,72.80
2019-02-12T08:56:58.664Z,61.19
2019-02-12T09:29:02.321Z,62.32
2019-02-12T09:44:46.546Z,57.14
2019-02-12T10:00:39.703Z,63.57
2019-02-12T10:16:31.781Z,55.70
2019-02-12T10:32:08.606Z,65.87
2019-02-12T10:47:40.407Z,67.56
2019-02-12T11:03:13.693Z,64.85
2019-02-12T11:18:46.918Z,65.82
2019-02-12T11:34:19.897Z,65.49
2019-02-12T11:49:53.234Z,66.95
2019-02-12T12:05:26.210Z,69.18
2019-02-12T12:20:59.829Z,68.92
2019-02-12T12:36:32.993Z,70.04
2019-02-12T12:52:06.276Z,72.17
2019-02-12T13:07:39.355Z,71.22
2019-02-12T13:23:12.630Z,72.90
2019-02-12T13:38:46.077Z,71.61
2019-02-12T13:54:19.163Z,71.78
2019-02-12T14:09:52.472Z,72.18
2019-02-12T14:25:26.641Z,72.55
2019-02-12T14:40:59.811Z,73.49
2019-02-12T14:56:32.961Z,74.52
2019-02-12T15:12:06.090Z,75.00
2019-02-12T15:27:39.302Z,76.38
2019-02-12T15:43:12.290Z,76.97
2019-02-12T15:58:45.638Z,78.52
2019-02-12T16:14:20.551Z,78.44
2019-02-12T16:29:54.010Z,77.95
2019-02-12T16:45:30.393Z,78.43
2019-02-12T17:01:04.541Z,78.15
2019-02-12T17:16:37.838Z,79.39
2019-02-12T17:32:10.483Z,80.09
2019-02-12T17:47:43.424Z,80.67
2019-02-12T18:03:16.382Z,82.79
2019-02-12T18:18:50.638Z,84.03
2019-02-12T18:34:24.185Z,83.16
2019-02-12T18:49:57.736Z,81.28
2019-02-12T19:05:32.433Z,82.10
2019-02-12T19:21:05.315Z,82.57
2019-02-12T19:36:38.180Z,83.25
2019-02-12T19:52:11.839Z,83.66
2019-02-12T20:07:44.809Z,82.71
2019-02-12T20:23:17.607Z,83.62
2019-02-12T20:38:50.993Z,83.33
2019-02-12T20:54:23.707Z,83.04
2019-02-12T21:09:56.591Z,84.38
2019-02-12T21:25:30.684Z,86.68
2019-02-12T21:41:03.405Z,87.09
2019-02-12T21:56:36.468Z,87.01
2019-02-12T22:12:09.237Z,84.68
2019-02-12T22:27:42.358Z,83.60
2019-02-12T22:43:15.883Z,82.54
2019-02-12T22:58:48.794Z,81.60
2019-02-12T23:14:21.880Z,81.41
2019-02-12T23:29:54.842Z,81.58
2019-02-12T23:45:29.184Z,84.71
